Time;durP1;ratioP1;P1;durP2;ratioP2;P2;SDS_P1;SDS_P2;PMS_P1;PMS_P2;Temp;Humidity;BMP_temperature;BMP_pressure;BME280_temperature;BME280_humidity;BME280_pressure;Samples;Min_cycle;Max_cycle;Signal;HPM_P1;HPM_P2
2022/01/22 05:02:27;;;;;;;;;;;;;;;0.20;100.00;99371.44;5234515;23;20241;-67
2022/01/22 05:05:24;;;;;;;;;;;;;;;0.25;100.00;99372.16;4866663;29;19954;-66
2022/01/22 05:08:01;;;;;;;;;;;;;;;0.22;100.00;99374.72;4865935;29;19966;-67
2022/01/22 05:10:45;;;;;;;;;;;;;;;0.26;100.00;99376.56;4867925;29;19956;-67
2022/01/22 05:13:12;;;;;;;;;;;;;;;0.25;100.00;99379.59;4867710;29;19953;-67
2022/01/22 05:15:40;;;;;;;;;;;;;;;0.26;100.00;99384.81;4868024;29;19971;-67
2022/01/22 05:18:08;;;;;;;;;;;;;;;0.23;100.00;99382.66;4884726;29;20250;-67
2022/01/22 05:20:46;;;;;;;;;;;;;;;0.24;100.00;99378.81;4867737;29;19964;-67
2022/01/22 05:23:18;;;;;;;;;;;;;;;0.25;100.00;99363.09;4864846;29;19958;-67
2022/01/22 05:25:55;;;;;;;;;;;;;;;0.30;100.00;99366.56;4859906;29;19955;-67
2022/01/22 05:37:05;;;;;;;;;;;;;;;0.23;100.00;99365.34;4864909;29;19973;-67
2022/01/22 05:39:34;;;;;;;;;;;;;;;0.19;100.00;99359.66;4887389;29;19958;-67
2022/01/22 05:42:03;;;;;;;;;;;;;;;0.18;100.00;99360.75;4864276;29;19949;-67
2022/01/22 05:44:31;;;;;;;;;;;;;;;0.18;100.00;99363.50;4874188;29;19961;-68
2022/01/22 05:47:03;;;;;;;;;;;;;;;0.09;100.00;99365.34;4863218;29;20241;-68
2022/01/22 05:49:33;;;;;;;;;;;;;;;0.08;100.00;99374.69;4863523;29;19961;-69
2022/01/22 05:52:04;;;;;;;;;;;;;;;0.04;100.00;99362.69;4866819;29;19964;-69
2022/01/22 05:54:51;;;;;;;;;;;;;;;0.03;100.00;99354.72;4860424;29;19973;-68
2022/01/22 06:00:08;;;;;;;;;;;;;;;-0.18;100.00;99359.78;4875012;29;19958;-68
2022/01/22 06:03:02;;;;;;;;;;;;;;;-0.13;100.00;99352.28;4880739;29;19983;-69
2022/01/22 06:05:30;;;;;;;;;;;;;;;-0.15;100.00;99349.00;4864420;29;19951;-68
2022/01/22 06:07:57;;;;;;;;;;;;;;;-0.21;100.00;99346.66;4868609;29;19956;-69
2022/01/22 06:10:28;;;;;;;;;;;;;;;-0.30;100.00;99351.22;4887011;29;19956;-70
2022/01/22 06:13:09;;;;;;;;;;;;;;;-0.33;100.00;99341.63;4860656;29;19961;-69
2022/01/22 06:15:37;;;;;;;;;;;;;;;-0.35;100.00;99343.06;4860990;29;19956;-69
2022/01/22 06:18:28;;;;;;;;;;;;;;;-0.30;100.00;99337.47;4865953;29;19960;-69
2022/01/22 06:20:56;;;;;;;;;;;;;;;-0.37;100.00;99343.38;4849768;29;19952;-69
2022/01/22 06:23:23;;;;;;;;;;;;;;;-0.39;100.00;99342.03;4874619;29;20296;-68
2022/01/22 06:25:51;;;;;;;;;;;;;;;-0.41;100.00;99347.81;4860862;29;19960;-69
2022/01/22 06:28:18;;;;;;;;;;;;;;;-0.43;100.00;99343.72;4861431;29;19961;-69
2022/01/22 06:30:47;;;;;;;;;;;;;;;-0.37;100.00;99340.63;4859890;29;19955;-68
2022/01/22 06:33:14;;;;;;;;;;;;;;;-0.37;100.00;99339.78;4863141;29;19956;-67
2022/01/22 06:35:42;;;;;;;;;;;;;;;-0.44;100.00;99344.88;4858139;29;19959;-72
2022/01/22 06:38:10;;;;;;;;;;;;;;;-0.52;100.00;99343.63;4857513;29;19955;-69
2022/01/22 06:44:20;;;;;;;;;;;;;;;-0.57;100.00;99340.94;4836117;29;19986;-67
2022/01/22 06:46:54;;;;;;;;;;;;;;;-0.56;100.00;99325.28;4857822;29;19966;-67
2022/01/22 06:49:40;;;;;;;;;;;;;;;-0.69;100.00;99326.88;4879177;29;20244;-67
2022/01/22 06:52:38;;;;;;;;;;;;;;;-0.70;100.00;99319.72;4854604;29;20362;-67
2022/01/22 06:55:13;;;;;;;;;;;;;;;-0.61;100.00;99333.63;4871033;29;19957;-67
2022/01/22 06:57:40;;;;;;;;;;;;;;;-0.60;100.00;99332.47;4865365;29;19975;-67
2022/01/22 07:00:12;;;;;;;;;;;;;;;-0.48;100.00;99341.88;4862654;29;20380;-67
2022/01/22 07:02:51;;;;;;;;;;;;;;;-0.37;100.00;99335.13;4858211;29;19989;-67
2022/01/22 07:05:20;;;;;;;;;;;;;;;-0.35;100.00;99338.38;4874614;29;20237;-67
2022/01/22 07:08:06;;;;;;;;;;;;;;;-0.32;100.00;99320.47;4873345;29;20335;-69
2022/01/22 07:10:38;;;;;;;;;;;;;;;-0.28;100.00;99322.31;4861368;29;19963;-67
2022/01/22 07:13:05;;;;;;;;;;;;;;;-0.32;100.00;99320.47;4861266;29;19961;-67
2022/01/22 07:15:34;;;;;;;;;;;;;;;-0.29;100.00;99325.34;4846786;29;19962;-67
2022/01/22 07:18:12;;;;;;;;;;;;;;;0.02;100.00;99331.94;4863562;29;20276;-67
2022/01/22 07:20:42;;;;;;;;;;;;;;;0.35;100.00;99329.91;4876974;29;20442;-67
2022/01/22 07:25:59;;;;;;;;;;;;;;;3.77;100.00;99323.31;4870389;29;19957;-67
2022/01/22 07:28:50;;;;;;;;;;;;;;;6.27;100.00;99323.28;4865429;29;19959;-67
2022/01/22 07:31:20;;;;;;;;;;;;;;;8.37;100.00;99332.91;4865483;29;19989;-68
2022/01/22 07:33:48;;;;;;;;;;;;;;;10.47;95.33;99335.22;4864247;29;20004;-71
2022/01/22 07:36:16;;;;;;;;;;;;;;;12.06;76.83;99335.66;4861840;29;19948;-69
2022/01/22 07:38:45;;;;;;;;;;;;;;;13.39;65.58;99332.50;4865884;29;19960;-71
2022/01/22 07:41:13;;;;;;;;;;;;;;;14.61;57.84;99335.44;4863619;29;19963;-70
2022/01/22 07:43:48;;;;;;;;;;;;;;;16.12;50.29;99332.41;4848196;29;19955;-71
2022/01/22 07:46:38;;;;;;;;;;;;;;;17.63;45.20;99326.91;4862283;29;19951;-69
2022/01/22 07:49:19;;;;;;;;;;;;;;;18.21;40.82;99334.31;4862499;29;19953;-69
2022/01/22 07:51:59;;;;;;;;;;;;;;;19.16;37.89;99330.09;4877814;29;19946;-69
2022/01/22 07:54:27;;;;;;;;;;;;;;;19.37;35.97;99334.59;4865286;29;19950;-70
2022/01/22 07:56:57;;;;;;;;;;;;;;;20.34;34.86;99327.47;4859903;29;20001;-71
2022/01/22 07:59:25;;;;;;;;;;;;;;;20.67;33.13;99314.13;4864275;29;20233;-68
2022/01/22 08:01:52;;;;;;;;;;;;;;;20.20;32.19;99310.69;4881640;29;20458;-69
2022/01/22 08:04:24;;;;;;;;;;;;;;;20.76;31.01;99314.34;4880219;29;20217;-69
2022/01/22 08:06:56;;;;;;;;;;;;;;;21.16;30.01;99312.97;4880309;29;20320;-68
2022/01/22 08:09:42;;;;;;;;;;;;;;;21.59;28.42;99321.22;4881935;29;19971;-68
2022/01/22 08:12:30;;;;;;;;;;;;;;;22.24;27.99;99336.88;4859400;29;19947;-69
2022/01/22 08:15:07;;;;;;;;;;;;;;;22.35;26.59;99332.91;4840193;29;19957;-69
2022/01/22 08:17:35;;;;;;;;;;;;;;;23.07;24.71;99331.06;4870579;29;19998;-69
2022/01/22 08:20:04;;;;;;;;;;;;;;;23.82;23.84;99315.03;4858264;29;19958;-69
2022/01/22 08:22:50;;;;;;;;;;;;;;;23.28;23.92;99309.59;4861679;29;19953;-69
2022/01/22 08:25:21;;;;;;;;;;;;;;;24.51;22.50;99307.16;4877582;29;19954;-69
2022/01/22 08:30:35;;;;;;;;;;;;;;;25.78;21.93;99322.75;4859292;29;19947;-69
2022/01/22 08:35:53;;;;;;;;;;;;;;;26.27;20.53;99322.63;4864269;29;19957;-69
2022/01/22 08:38:26;;;;;;;;;;;;;;;23.28;23.18;99313.22;4864223;29;19989;-69
2022/01/22 08:40:55;;;;;;;;;;;;;;;23.11;23.47;99308.91;4864972;29;19957;-68
2022/01/22 08:43:25;;;;;;;;;;;;;;;21.59;24.99;99299.22;4867030;29;19966;-68
2022/01/22 08:45:53;;;;;;;;;;;;;;;20.03;28.36;99301.28;4868120;29;19955;-68
2022/01/22 08:48:21;;;;;;;;;;;;;;;17.88;30.90;99301.94;4864015;29;20024;-68
2022/01/22 08:50:54;;;;;;;;;;;;;;;15.65;34.55;99294.31;4877137;29;20235;-69
2022/01/22 08:53:36;;;;;;;;;;;;;;;13.72;42.30;99292.13;4868476;29;20365;-69
2022/01/22 08:56:05;;;;;;;;;;;;;;;12.43;45.42;99290.78;4864080;29;20239;-68
2022/01/22 08:58:34;;;;;;;;;;;;;;;11.71;48.36;99290.41;4862039;29;20392;-68
2022/01/22 09:01:22;;;;;;;;;;;;;;;11.18;48.49;99287.63;4875441;29;19969;-69
2022/01/22 09:03:57;;;;;;;;;;;;;;;10.67;52.38;99283.63;4866609;29;19957;-69
2022/01/22 09:06:51;;;;;;;;;;;;;;;9.84;56.05;99279.72;4857713;29;19961;-68
2022/01/22 09:09:45;;;;;;;;;;;;;;;9.59;57.61;99288.75;4850130;29;20333;-68
2022/01/22 09:12:52;;;;;;;;;;;;;;;9.07;61.20;99281.66;4805941;29;19955;-68
2022/01/22 09:15:23;;;;;;;;;;;;;;;8.64;65.43;99279.03;4788629;29;19953;-68
2022/01/22 09:17:51;;;;;;;;;;;;;;;8.54;66.11;99285.97;4847124;29;19974;-68
2022/01/22 09:20:42;;;;;;;;;;;;;;;8.42;68.01;99286.06;4855946;29;19958;-68
2022/01/22 09:23:14;;;;;;;;;;;;;;;8.17;69.23;99286.56;4854909;29;20402;-68
2022/01/22 09:25:45;;;;;;;;;;;;;;;8.08;70.25;99285.91;4866404;29;19962;-68
2022/01/22 09:28:14;;;;;;;;;;;;;;;7.76;75.55;99273.91;4850320;29;19983;-68
2022/01/22 09:30:47;;;;;;;;;;;;;;;7.73;75.89;99275.44;4859594;29;19952;-68
2022/01/22 09:33:16;;;;;;;;;;;;;;;7.67;76.48;99279.66;4846272;29;19968;-68
2022/01/22 09:36:03;;;;;;;;;;;;;;;7.32;77.23;99281.41;4878421;29;19961;-68
2022/01/22 09:38:47;;;;;;;;;;;;;;;7.25;78.86;99283.97;4850120;29;20248;-68
2022/01/22 09:41:34;;;;;;;;;;;;;;;6.91;83.09;99270.59;4883308;29;19960;-68
2022/01/22 09:44:26;;;;;;;;;;;;;;;6.87;85.71;99276.03;4856561;29;19965;-67
2022/01/22 09:47:33;;;;;;;;;;;;;;;6.89;90.27;99270.16;4862821;29;19950;-68
2022/01/22 09:50:08;;;;;;;;;;;;;;;6.80;94.17;99264.69;4867004;29;19953;-68
2022/01/22 09:53:10;;;;;;;;;;;;;;;6.58;93.87;99267.97;4831325;29;19956;-67
2022/01/22 09:56:17;;;;;;;;;;;;;;;6.32;97.19;99253.63;4808198;29;19964;-67
2022/01/22 09:59:10;;;;;;;;;;;;;;;6.41;96.09;99254.31;4865102;29;20369;-68
2022/01/22 10:02:07;;;;;;;;;;;;;;;6.37;96.51;99256.97;4880421;29;20443;-68
2022/01/22 10:04:37;;;;;;;;;;;;;;;6.55;95.35;99258.34;4863884;29;19950;-68
2022/01/22 10:07:27;;;;;;;;;;;;;;;6.72;96.29;99246.22;4869275;29;19950;-68
2022/01/22 10:10:15;;;;;;;;;;;;;;;6.90;93.60;99252.28;4868252;29;19956;-68
2022/01/22 10:13:38;;;;;;;;;;;;;;;7.05;93.63;99232.91;4859966;29;19954;-67
2022/01/22 10:16:23;;;;;;;;;;;;;;;7.19;94.55;99226.94;4881086;29;19951;-67
2022/01/22 10:19:09;;;;;;;;;;;;;;;7.28;93.75;99233.19;4879963;29;19974;-68
2022/01/22 10:21:37;;;;;;;;;;;;;;;7.19;94.04;99230.56;4879118;29;19953;-67
2022/01/22 10:24:25;;;;;;;;;;;;;;;7.02;97.03;99244.75;4881164;29;19953;-67
2022/01/22 10:27:11;;;;;;;;;;;;;;;6.59;100.00;99262.06;4879041;29;19956;-68
2022/01/22 10:29:46;;;;;;;;;;;;;;;6.74;100.00;99254.19;4881784;29;20647;-68
2022/01/22 10:32:17;;;;;;;;;;;;;;;6.42;100.00;99262.31;4879917;29;20267;-67
2022/01/22 10:35:18;;;;;;;;;;;;;;;6.32;100.00;99264.72;4821430;29;20371;-68
2022/01/22 10:38:23;;;;;;;;;;;;;;;6.25;100.00;99270.88;4822356;29;19974;-68
2022/01/22 10:40:56;;;;;;;;;;;;;;;6.37;100.00;99264.50;4880297;29;19982;-67
2022/01/22 10:43:34;;;;;;;;;;;;;;;6.24;100.00;99260.91;4856142;29;20006;-67
2022/01/22 10:48:43;;;;;;;;;;;;;;;6.37;100.00;99268.09;4877854;29;20545;-67
2022/01/22 10:51:12;;;;;;;;;;;;;;;6.33;100.00;99266.38;4874657;29;20527;-67
2022/01/22 10:53:43;;;;;;;;;;;;;;;6.12;100.00;99269.22;4872529;29;19958;-67
2022/01/22 10:56:11;;;;;;;;;;;;;;;6.28;100.00;99261.84;4851512;29;19954;-67
2022/01/22 10:58:54;;;;;;;;;;;;;;;6.33;100.00;99258.81;4861448;29;19972;-70
2022/01/22 11:01:23;;;;;;;;;;;;;;;6.46;100.00;99254.06;4867298;29;19969;-66
2022/01/22 11:04:06;;;;;;;;;;;;;;;6.63;100.00;99248.28;4860810;29;19951;-66
2022/01/22 11:06:34;;;;;;;;;;;;;;;6.57;100.00;99238.56;4864815;29;19970;-66
2022/01/22 11:09:03;;;;;;;;;;;;;;;6.77;100.00;99234.84;4881280;29;19954;-66
2022/01/22 11:11:32;;;;;;;;;;;;;;;6.95;100.00;99222.28;4873044;29;19952;-67
2022/01/22 11:14:00;;;;;;;;;;;;;;;7.36;100.00;99204.41;4876777;29;20241;-66
2022/01/22 11:16:27;;;;;;;;;;;;;;;7.48;100.00;99204.38;4879940;29;19950;-66
2022/01/22 11:19:10;;;;;;;;;;;;;;;7.84;100.00;99206.13;4873564;29;19969;-67
2022/01/22 11:21:41;;;;;;;;;;;;;;;7.93;100.00;99209.53;4881190;29;19957;-66
2022/01/22 11:24:09;;;;;;;;;;;;;;;7.86;100.00;99199.03;4867067;29;19957;-66
2022/01/22 11:26:37;;;;;;;;;;;;;;;7.57;100.00;99204.19;4877351;29;20301;-66
2022/01/22 11:29:05;;;;;;;;;;;;;;;7.34;100.00;99211.47;4869873;29;20381;-66
2022/01/22 11:31:33;;;;;;;;;;;;;;;6.83;100.00;99216.75;4858387;29;19961;-66
2022/01/22 11:34:02;;;;;;;;;;;;;;;6.56;100.00;99220.28;4881307;29;20229;-66
2022/01/22 11:36:40;;;;;;;;;;;;;;;6.36;100.00;99210.09;4872205;29;20534;-66
2022/01/22 11:39:13;;;;;;;;;;;;;;;6.13;100.00;99220.06;4875679;29;19976;-66
2022/01/22 11:41:49;;;;;;;;;;;;;;;5.92;100.00;99229.28;4878598;29;20235;-66
2022/01/22 11:44:23;;;;;;;;;;;;;;;5.81;100.00;99239.19;4844976;29;19950;-67
2022/01/22 11:47:05;;;;;;;;;;;;;;;5.64;100.00;99233.81;4877341;29;19948;-67
2022/01/22 11:49:35;;;;;;;;;;;;;;;5.38;100.00;99236.03;4877010;29;20548;-67
2022/01/22 11:52:09;;;;;;;;;;;;;;;5.28;100.00;99233.72;4875528;29;19959;-67
2022/01/22 11:55:11;;;;;;;;;;;;;;;5.03;100.00;99230.00;4877806;29;19960;-67
2022/01/22 11:57:40;;;;;;;;;;;;;;;5.36;100.00;99229.19;4795252;29;19964;-67
2022/01/22 12:00:23;;;;;;;;;;;;;;;5.38;100.00;99227.72;4860237;29;19972;-67
2022/01/22 12:03:03;;;;;;;;;;;;;;;5.42;100.00;99227.84;4875709;29;19972;-67
2022/01/22 12:05:31;;;;;;;;;;;;;;;5.64;100.00;99219.97;4872340;29;20280;-66
2022/01/22 12:07:59;;;;;;;;;;;;;;;5.66;100.00;99219.59;4872722;29;19953;-66
2022/01/22 12:10:38;;;;;;;;;;;;;;;5.72;100.00;99221.00;4878995;29;19957;-66
2022/01/22 12:16:15;;;;;;;;;;;;;;;5.79;100.00;99216.53;4883300;29;19960;-67
2022/01/22 12:18:53;;;;;;;;;;;;;;;5.73;100.00;99215.09;4884175;29;19976;-67
2022/01/22 12:21:34;;;;;;;;;;;;;;;5.67;100.00;99210.91;4883950;29;19959;-67
2022/01/22 12:24:07;;;;;;;;;;;;;;;5.85;100.00;99206.03;4876020;29;19958;-67
2022/01/22 12:26:37;;;;;;;;;;;;;;;5.77;100.00;99204.94;4875292;29;19949;-67
2022/01/22 12:29:24;;;;;;;;;;;;;;;5.69;100.00;99205.88;4865971;29;19961;-67
2022/01/22 12:32:14;;;;;;;;;;;;;;;5.60;100.00;99210.69;4876153;29;19955;-67
2022/01/22 12:35:04;;;;;;;;;;;;;;;5.65;100.00;99213.22;4868467;29;20285;-67
2022/01/22 12:37:32;;;;;;;;;;;;;;;5.52;100.00;99203.28;4883777;29;20339;-67
2022/01/22 12:40:05;;;;;;;;;;;;;;;5.66;100.00;99192.66;4884292;29;19977;-67
2022/01/22 12:42:52;;;;;;;;;;;;;;;5.05;100.00;99196.41;4873305;29;19963;-67
2022/01/22 12:45:21;;;;;;;;;;;;;;;5.30;100.00;99203.66;4875974;29;19956;-66
2022/01/22 12:47:50;;;;;;;;;;;;;;;5.43;100.00;99185.09;4884223;29;20350;-67
2022/01/22 12:50:23;;;;;;;;;;;;;;;5.38;100.00;99171.47;4867676;29;19946;-67
2022/01/22 12:52:51;;;;;;;;;;;;;;;5.48;100.00;99163.50;4878254;29;19981;-67
2022/01/22 12:55:22;;;;;;;;;;;;;;;5.68;100.00;99162.59;4873424;29;19962;-67
2022/01/22 12:57:57;;;;;;;;;;;;;;;5.76;100.00;99174.75;4878923;29;19948;-67
2022/01/22 13:00:24;;;;;;;;;;;;;;;5.74;100.00;99171.53;4882234;29;20003;-66
2022/01/22 13:02:56;;;;;;;;;;;;;;;5.45;100.00;99166.16;4877029;29;19985;-67
2022/01/22 13:05:24;;;;;;;;;;;;;;;5.63;100.00;99162.00;4874900;29;20551;-67
2022/01/22 13:08:12;;;;;;;;;;;;;;;5.82;100.00;99162.28;4850516;29;20358;-67
2022/01/22 13:11:00;;;;;;;;;;;;;;;5.75;100.00;99146.19;4876158;29;20057;-67
2022/01/22 13:13:33;;;;;;;;;;;;;;;5.76;100.00;99147.00;4878069;29;19958;-67
2022/01/22 13:16:04;;;;;;;;;;;;;;;5.66;100.00;99142.72;4861052;29;19961;-67
2022/01/22 13:19:01;;;;;;;;;;;;;;;5.67;100.00;99136.00;4881770;29;20362;-67
2022/01/22 13:21:30;;;;;;;;;;;;;;;5.67;100.00;99143.53;4859612;29;19964;-67
2022/01/22 13:24:05;;;;;;;;;;;;;;;5.53;100.00;99146.63;4881508;29;20340;-67
2022/01/22 13:26:45;;;;;;;;;;;;;;;5.31;100.00;99147.03;4859390;29;19952;-67
2022/01/22 13:29:20;;;;;;;;;;;;;;;5.32;100.00;99137.56;4882191;29;20218;-67
2022/01/22 13:32:12;;;;;;;;;;;;;;;5.15;100.00;99155.22;4863391;29;19958;-68
2022/01/22 13:35:04;;;;;;;;;;;;;;;5.23;100.00;99136.88;4879111;29;19950;-67
2022/01/22 13:48:26;;;;;;;;;;;;;;;5.00;100.00;99127.31;4872580;29;19960;-67
2022/01/22 13:50:57;;;;;;;;;;;;;;;5.02;100.00;99117.50;4879546;29;19953;-67
2022/01/22 13:53:25;;;;;;;;;;;;;;;5.00;100.00;99113.44;4878081;29;19984;-66
2022/01/22 13:56:08;;;;;;;;;;;;;;;4.96;100.00;99113.34;4887952;29;19953;-67
2022/01/22 13:58:36;;;;;;;;;;;;;;;4.97;100.00;99103.84;4879365;29;19952;-67
2022/01/22 14:04:14;;;;;;;;;;;;;;;5.08;100.00;99101.47;4840894;29;19955;-67
2022/01/22 14:06:42;;;;;;;;;;;;;;;5.06;100.00;99104.56;4878582;29;19963;-67
2022/01/22 14:09:16;;;;;;;;;;;;;;;5.09;100.00;99095.56;4878618;29;20239;-67
2022/01/22 14:12:02;;;;;;;;;;;;;;;5.12;100.00;99102.41;4879272;29;19954;-67
2022/01/22 14:14:49;;;;;;;;;;;;;;;5.15;100.00;99088.69;4874663;29;19956;-67
2022/01/22 14:17:16;;;;;;;;;;;;;;;5.15;100.00;99088.69;4867345;29;19959;-67
2022/01/22 14:19:44;;;;;;;;;;;;;;;5.08;100.00;99091.19;4869248;29;19969;-67
2022/01/22 14:22:14;;;;;;;;;;;;;;;5.09;100.00;99101.13;4881437;29;19955;-67
2022/01/22 14:24:41;;;;;;;;;;;;;;;5.09;100.00;99100.31;4882308;29;19960;-67
2022/01/22 14:27:19;;;;;;;;;;;;;;;5.04;100.00;99098.56;4880490;29;20279;-67
2022/01/22 14:29:47;;;;;;;;;;;;;;;5.05;100.00;99094.66;4881272;29;19948;-67
2022/01/22 14:32:17;;;;;;;;;;;;;;;5.00;100.00;99102.38;4880422;29;19955;-67
2022/01/22 14:34:46;;;;;;;;;;;;;;;5.05;100.00;99099.38;4878699;29;19952;-67
2022/01/22 14:37:28;;;;;;;;;;;;;;;5.04;100.00;99106.88;4878349;29;19961;-67
2022/01/22 14:45:26;;;;;;;;;;;;;;;4.99;100.00;99109.88;4870033;29;19956;-67
2022/01/22 14:47:54;;;;;;;;;;;;;;;4.89;100.00;99117.81;4878465;29;19959;-67
2022/01/22 14:50:21;;;;;;;;;;;;;;;4.88;100.00;99113.41;4863392;29;20208;-67
2022/01/22 14:52:59;;;;;;;;;;;;;;;4.86;100.00;99126.81;4880971;29;19952;-67
2022/01/22 14:55:27;;;;;;;;;;;;;;;4.84;100.00;99123.56;4873712;29;19956;-67
2022/01/22 14:57:56;;;;;;;;;;;;;;;4.80;100.00;99120.66;4880913;29;20328;-67
2022/01/22 15:00:23;;;;;;;;;;;;;;;4.94;100.00;99120.38;4871845;29;19974;-67
2022/01/22 15:02:51;;;;;;;;;;;;;;;4.80;100.00;99117.88;4877922;29;19971;-67
2022/01/22 15:05:19;;;;;;;;;;;;;;;4.66;100.00;99125.66;4879956;29;19967;-67
2022/01/22 15:07:46;;;;;;;;;;;;;;;4.72;100.00;99115.19;4880411;29;19958;-67
2022/01/22 15:10:17;;;;;;;;;;;;;;;4.70;100.00;99123.84;4878472;29;19961;-67
2022/01/22 15:12:45;;;;;;;;;;;;;;;4.59;100.00;99123.47;4874420;29;19964;-67
2022/01/22 15:15:34;;;;;;;;;;;;;;;4.56;100.00;99121.34;4880628;29;19967;-67
2022/01/22 15:18:09;;;;;;;;;;;;;;;4.39;100.00;99113.19;4875227;29;19958;-67
2022/01/22 15:20:36;;;;;;;;;;;;;;;4.34;100.00;99124.47;4880118;29;20403;-67
2022/01/22 15:23:04;;;;;;;;;;;;;;;4.42;100.00;99123.59;4863529;29;20066;-67
2022/01/22 15:25:31;;;;;;;;;;;;;;;4.25;100.00;99137.56;4880225;29;19984;-67
2022/01/22 15:27:59;;;;;;;;;;;;;;;4.23;100.00;99127.97;4878577;29;19958;-66
2022/01/22 15:30:33;;;;;;;;;;;;;;;4.20;100.00;99123.09;4880366;29;19968;-67
2022/01/22 15:33:17;;;;;;;;;;;;;;;4.15;100.00;99142.66;4879706;29;19952;-67
2022/01/22 15:35:44;;;;;;;;;;;;;;;4.19;100.00;99141.66;4878367;29;19953;-67
2022/01/22 15:38:12;;;;;;;;;;;;;;;4.21;100.00;99138.53;4878059;29;19959;-67
2022/01/22 15:40:41;;;;;;;;;;;;;;;4.22;100.00;99154.00;4879638;29;20002;-67
2022/01/22 15:43:09;;;;;;;;;;;;;;;4.18;100.00;99137.25;4863424;29;19967;-67
2022/01/22 15:45:37;;;;;;;;;;;;;;;4.21;100.00;99131.06;4879422;29;19951;-67
2022/01/22 15:48:05;;;;;;;;;;;;;;;4.10;100.00;99140.09;4878569;29;19952;-67
2022/01/22 15:50:33;;;;;;;;;;;;;;;4.00;100.00;99144.06;4883226;29;19957;-67
2022/01/22 15:53:09;;;;;;;;;;;;;;;3.99;100.00;99147.97;4883519;29;19962;-66
2022/01/22 15:55:37;;;;;;;;;;;;;;;3.96;100.00;99152.19;4885060;29;19952;-66
2022/01/22 15:58:05;;;;;;;;;;;;;;;3.90;100.00;99161.03;4882045;29;19957;-71
2022/01/22 16:00:35;;;;;;;;;;;;;;;3.85;100.00;99148.19;4883347;29;19979;-69
2022/01/22 16:03:04;;;;;;;;;;;;;;;3.65;100.00;99150.88;4881395;29;19971;-70
2022/01/22 16:05:32;;;;;;;;;;;;;;;3.63;100.00;99153.19;4885129;29;19948;-70
2022/01/22 16:07:59;;;;;;;;;;;;;;;3.56;100.00;99148.16;4883450;29;19959;-70
2022/01/22 16:10:47;;;;;;;;;;;;;;;3.54;100.00;99146.88;4885388;29;19958;-70
2022/01/22 16:13:16;;;;;;;;;;;;;;;3.44;100.00;99156.34;4885456;29;19951;-69
2022/01/22 16:15:43;;;;;;;;;;;;;;;3.39;100.00;99155.72;4885666;29;19985;-69
2022/01/22 16:18:11;;;;;;;;;;;;;;;3.42;100.00;99160.59;4869454;29;19951;-70
2022/01/22 16:20:38;;;;;;;;;;;;;;;3.30;100.00;99153.78;4885826;29;19974;-68
2022/01/22 16:23:05;;;;;;;;;;;;;;;3.11;100.00;99183.72;4885943;29;19954;-69
2022/01/22 16:25:33;;;;;;;;;;;;;;;3.25;100.00;99162.22;4886869;29;19955;-69
2022/01/22 16:28:00;;;;;;;;;;;;;;;3.07;100.00;99165.38;4883137;29;19953;-69
2022/01/22 16:30:28;;;;;;;;;;;;;;;3.02;100.00;99166.34;4884361;29;19980;-69
2022/01/22 16:32:55;;;;;;;;;;;;;;;3.04;100.00;99154.97;4885773;29;19959;-68
2022/01/22 16:35:23;;;;;;;;;;;;;;;2.87;100.00;99157.75;4886895;29;19990;-68
2022/01/22 16:37:50;;;;;;;;;;;;;;;2.82;100.00;99155.16;4884830;29;19951;-69
2022/01/22 16:40:24;;;;;;;;;;;;;;;2.65;100.00;99167.84;4883743;29;19955;-68
2022/01/22 16:43:03;;;;;;;;;;;;;;;2.65;100.00;99158.75;4886676;29;19964;-68
2022/01/22 16:59:01;;;;;;;;;;;;;;;2.74;100.00;99162.31;4886007;29;19983;-69
2022/01/22 17:01:43;;;;;;;;;;;;;;;2.66;100.00;99166.69;4863729;29;20603;-70
2022/01/22 17:04:40;;;;;;;;;;;;;;;2.73;100.00;99180.03;4881010;29;19958;-69
2022/01/22 17:07:11;;;;;;;;;;;;;;;2.70;100.00;99183.44;4882863;29;19954;-67
2022/01/22 17:15:01;;;;;;;;;;;;;;;2.44;100.00;99196.41;4878588;29;19980;-68
2022/01/22 17:17:28;;;;;;;;;;;;;;;2.40;100.00;99195.41;4879719;29;20050;-68
2022/01/22 17:19:56;;;;;;;;;;;;;;;2.38;100.00;99195.75;4864661;29;19962;-68
2022/01/22 17:22:23;;;;;;;;;;;;;;;2.37;100.00;99207.13;4877878;29;20488;-70
2022/01/22 17:24:50;;;;;;;;;;;;;;;2.38;100.00;99220.59;4877910;29;19958;-69
2022/01/22 17:27:20;;;;;;;;;;;;;;;2.41;100.00;99221.91;4879474;29;20313;-69
2022/01/22 17:29:51;;;;;;;;;;;;;;;2.32;100.00;99204.53;4882199;29;19951;-70
2022/01/22 17:32:22;;;;;;;;;;;;;;;2.26;100.00;99192.00;4865969;29;20254;-73
2022/01/22 17:34:49;;;;;;;;;;;;;;;2.26;100.00;99198.34;4881403;29;19969;-71
2022/01/22 17:37:16;;;;;;;;;;;;;;;2.28;100.00;99211.78;4881474;29;19958;-71
2022/01/22 17:39:44;;;;;;;;;;;;;;;2.31;100.00;99205.63;4882558;29;19954;-70
2022/01/22 17:42:17;;;;;;;;;;;;;;;2.20;100.00;99207.88;4878773;29;20370;-70
2022/01/22 17:44:48;;;;;;;;;;;;;;;2.30;100.00;99193.78;4881769;29;19965;-71
2022/01/22 17:47:17;;;;;;;;;;;;;;;2.30;100.00;99204.81;4880168;29;19953;-69
2022/01/22 17:49:45;;;;;;;;;;;;;;;2.28;100.00;99215.38;4881670;29;19956;-70
2022/01/22 17:52:13;;;;;;;;;;;;;;;2.36;100.00;99208.25;4880112;29;19961;-67
2022/01/22 17:54:41;;;;;;;;;;;;;;;2.37;100.00;99205.16;4880442;29;19953;-67
2022/01/22 17:57:09;;;;;;;;;;;;;;;2.36;100.00;99192.50;4882163;29;19957;-67
2022/01/22 17:59:36;;;;;;;;;;;;;;;2.35;100.00;99192.81;4880445;29;19954;-67
2022/01/22 18:02:04;;;;;;;;;;;;;;;2.33;100.00;99197.84;4880687;29;19990;-68
2022/01/22 18:04:33;;;;;;;;;;;;;;;2.24;100.00;99194.25;4882764;29;19954;-68
2022/01/22 18:07:01;;;;;;;;;;;;;;;2.28;100.00;99196.06;4882886;29;19960;-67
2022/01/22 18:09:30;;;;;;;;;;;;;;;2.31;100.00;99197.34;4879184;29;19953;-67
2022/01/22 18:11:58;;;;;;;;;;;;;;;2.35;100.00;99207.44;4883269;29;20333;-67
2022/01/22 18:14:25;;;;;;;;;;;;;;;2.46;100.00;99230.84;4883331;29;19954;-67
2022/01/22 18:16:53;;;;;;;;;;;;;;;2.48;100.00;99233.28;4878788;29;20217;-67
2022/01/22 18:19:20;;;;;;;;;;;;;;;2.33;100.00;99233.72;4866220;29;19956;-67
2022/01/22 18:21:48;;;;;;;;;;;;;;;2.19;100.00;99247.66;4882620;29;19984;-67
2022/01/22 18:24:16;;;;;;;;;;;;;;;2.02;100.00;99242.09;4865893;29;19952;-67
2022/01/22 18:26:43;;;;;;;;;;;;;;;2.05;100.00;99241.44;4881005;29;19964;-68
2022/01/22 18:29:15;;;;;;;;;;;;;;;2.14;100.00;99244.22;4883079;29;20242;-69
2022/01/22 18:31:43;;;;;;;;;;;;;;;2.04;100.00;99247.25;4879496;29;19971;-70
2022/01/22 18:34:11;;;;;;;;;;;;;;;1.99;100.00;99262.84;4876543;29;19957;-68
2022/01/22 18:36:39;;;;;;;;;;;;;;;2.06;100.00;99262.38;4882296;29;20454;-68
2022/01/22 18:39:08;;;;;;;;;;;;;;;1.99;100.00;99251.81;4877975;29;19952;-69
2022/01/22 18:41:37;;;;;;;;;;;;;;;1.93;100.00;99261.34;4879306;29;19976;-68
2022/01/22 18:44:10;;;;;;;;;;;;;;;1.98;100.00;99274.19;4864942;29;19954;-67
2022/01/22 18:46:38;;;;;;;;;;;;;;;2.07;100.00;99266.75;4882162;29;19949;-68
2022/01/22 18:49:14;;;;;;;;;;;;;;;2.14;100.00;99271.81;4865744;29;19959;-67
2022/01/22 18:51:47;;;;;;;;;;;;;;;2.09;100.00;99285.75;4883329;29;19956;-70
2022/01/22 18:54:14;;;;;;;;;;;;;;;2.06;100.00;99283.63;4881554;29;20349;-69
2022/01/22 18:56:42;;;;;;;;;;;;;;;2.23;100.00;99280.94;4881080;29;19964;-69
2022/01/22 18:59:12;;;;;;;;;;;;;;;2.29;100.00;99276.91;4881952;29;19953;-68
2022/01/22 19:01:41;;;;;;;;;;;;;;;2.28;100.00;99269.75;4882962;29;19983;-67
2022/01/22 19:04:10;;;;;;;;;;;;;;;2.34;100.00;99274.81;4879200;29;19967;-68
2022/01/22 19:06:38;;;;;;;;;;;;;;;2.52;100.00;99283.94;4881099;29;19959;-67
2022/01/22 19:09:06;;;;;;;;;;;;;;;2.52;100.00;99290.28;4882225;29;19963;-67
2022/01/22 19:11:34;;;;;;;;;;;;;;;2.44;100.00;99281.97;4880471;29;19951;-67
2022/01/22 19:14:01;;;;;;;;;;;;;;;2.44;100.00;99290.25;4878591;29;19955;-68
2022/01/22 19:16:28;;;;;;;;;;;;;;;2.45;100.00;99283.59;4863206;29;19956;-72
2022/01/22 19:18:56;;;;;;;;;;;;;;;2.47;100.00;99284.09;4881170;29;20232;-70
2022/01/22 19:21:29;;;;;;;;;;;;;;;2.49;100.00;99293.69;4880706;29;19956;-71
2022/01/22 19:24:03;;;;;;;;;;;;;;;2.48;100.00;99302.28;4865529;29;19952;-72
2022/01/22 19:29:08;;;;;;;;;;;;;;;2.77;100.00;99302.50;4878615;29;19954;-72
2022/01/22 19:31:38;;;;;;;;;;;;;;;2.85;100.00;99309.19;4874000;29;19952;-73
2022/01/22 19:34:05;;;;;;;;;;;;;;;2.90;100.00;99317.31;4864893;29;19968;-73